Toledo, Ohio
Current Conditions -  °F | °C
As of 9:53 PM on Wednesday 22 Oct 2014 (Local Time) from KTDZ Reporting Station
Overcast Overcast  
Wind Chill:   Ceiling: 3600
Heat Index:   Visibility: 10mi
Dew Point:   Wind: 3mph
Humidity: 80%   Direction: 290°WNW
Pressure: 30.28"   Gusts: NA
Location:  41.65°N, 83.54°W
Report Text: KTDZ 230153Z AUTO 29003KT 10SM OVC036 09/06 A3028 RMK AO2 SLP257 T00890056 TSNO
Loading
Personal Weather Stations






























Interactive Weather Map
Tropical Storm Tracking
New forecast layout! Learn more

10-Day Weather Forecast

Advertisements
Track Severe Weather on mobile